Time;durP1;ratioP1;P1;durP2;ratioP2;P2;SDS_P1;SDS_P2;PMS_P1;PMS_P2;Temp;Humidity;BMP_temperature;BMP_pressure;BME280_temperature;BME280_humidity;BME280_pressure;Samples;Min_cycle;Max_cycle;Signal;HPM_P1;HPM_P2
2022/07/25 00:00:24;;;;;;;12.40;4.22;;;;;;;25.42;37.16;98259.12;4503703;31;20084;-80
2022/07/25 00:02:51;;;;;;;8.95;4.18;;;;;;;25.45;37.27;98258.78;4503306;31;20096;-80
2022/07/25 00:05:19;;;;;;;8.82;3.67;;;;;;;25.37;37.41;98258.72;4503408;31;20148;-80
2022/07/25 00:07:45;;;;;;;8.65;3.62;;;;;;;25.43;37.30;98265.22;4502182;31;20158;-80
2022/07/25 00:10:12;;;;;;;11.32;4.00;;;;;;;25.42;37.30;98259.12;4503577;31;20369;-80
2022/07/25 00:12:40;;;;;;;8.65;3.83;;;;;;;25.18;37.87;98253.63;4503637;31;20160;-80
2022/07/25 00:15:08;;;;;;;8.80;3.75;;;;;;;24.90;38.03;98255.50;4502888;31;20138;-80
2022/07/25 00:17:35;;;;;;;8.15;3.97;;;;;;;24.23;39.73;98260.16;4503615;31;20123;-80
2022/07/25 00:20:03;;;;;;;9.40;4.00;;;;;;;24.73;38.80;98249.22;4503560;31;20124;-80
2022/07/25 00:22:30;;;;;;;10.38;3.92;;;;;;;25.09;38.04;98256.22;4503111;31;20445;-80
2022/07/25 00:24:57;;;;;;;9.30;3.83;;;;;;;24.80;38.50;98255.56;4503360;31;20454;-80
2022/07/25 00:27:24;;;;;;;7.57;3.70;;;;;;;24.98;38.38;98259.03;4503455;31;20091;-80
2022/07/25 00:29:51;;;;;;;9.50;3.90;;;;;;;25.06;38.03;98251.22;4501947;31;20465;-80
2022/07/25 00:32:18;;;;;;;10.75;4.07;;;;;;;25.16;38.14;98252.94;4503211;31;20112;-80
2022/07/25 00:34:45;;;;;;;8.05;3.97;;;;;;;25.20;37.57;98249.00;4503247;31;20104;-80
2022/07/25 00:37:12;;;;;;;9.88;4.00;;;;;;;24.97;37.86;98244.16;4503233;31;20170;-80
2022/07/25 00:39:39;;;;;;;9.82;4.30;;;;;;;24.51;39.24;98239.94;4503414;31;20099;-80
2022/07/25 00:42:06;;;;;;;8.95;4.15;;;;;;;24.15;39.93;98239.84;4503276;31;20104;-80
2022/07/25 00:44:33;;;;;;;9.32;3.97;;;;;;;24.47;39.44;98242.03;4502800;31;20168;-80
2022/07/25 00:47:00;;;;;;;8.77;4.07;;;;;;;23.59;40.73;98250.41;4503459;31;20139;-80
2022/07/25 00:49:27;;;;;;;8.82;3.80;;;;;;;24.62;38.85;98238.88;4503385;31;20110;-80
2022/07/25 00:51:54;;;;;;;9.30;3.90;;;;;;;25.17;38.00;98234.31;4502963;31;20114;-80
2022/07/25 00:54:21;;;;;;;10.55;4.05;;;;;;;24.28;39.96;98231.56;4503018;31;20113;-80
2022/07/25 00:56:49;;;;;;;8.65;3.70;;;;;;;24.94;38.97;98231.28;4502934;31;20166;-80
2022/07/25 00:59:17;;;;;;;9.07;4.00;;;;;;;25.14;38.00;98231.97;4503250;31;20080;-80
2022/07/25 01:01:46;;;;;;;7.47;3.70;;;;;;;24.85;38.77;98226.09;4503050;31;20137;-80
2022/07/25 01:04:14;;;;;;;12.07;3.95;;;;;;;24.76;38.92;98236.56;4502757;31;20104;-80
2022/07/25 01:06:42;;;;;;;8.95;3.83;;;;;;;25.40;37.75;98232.00;4503145;31;20481;-80
2022/07/25 01:09:09;;;;;;;9.15;3.80;;;;;;;25.34;37.74;98233.47;4503061;31;20122;-80
2022/07/25 01:11:36;;;;;;;8.23;3.83;;;;;;;24.62;39.13;98233.63;4502825;31;20471;-80
2022/07/25 01:14:04;;;;;;;11.00;3.92;;;;;;;24.78;39.05;98239.06;4502947;31;20118;-80
2022/07/25 01:16:31;;;;;;;7.85;4.10;;;;;;;24.59;39.47;98239.19;4503097;31;20076;-80
2022/07/25 01:18:58;;;;;;;9.18;3.40;;;;;;;24.33;39.77;98237.25;4502779;31;20088;-80
2022/07/25 01:21:26;;;;;;;7.43;3.50;;;;;;;24.45;39.34;98243.97;4502921;31;20490;-80
2022/07/25 01:23:53;;;;;;;7.43;3.72;;;;;;;24.51;39.22;98237.28;4502952;31;20112;-80
2022/07/25 01:26:20;;;;;;;9.68;3.87;;;;;;;24.32;39.19;98229.50;4502634;31;20095;-80
2022/07/25 01:28:47;;;;;;;9.13;3.50;;;;;;;24.01;40.00;98232.37;4502835;31;20132;-80
2022/07/25 01:31:13;;;;;;;8.48;3.70;;;;;;;24.13;40.34;98228.59;4502719;31;20111;-80
2022/07/25 01:33:41;;;;;;;8.50;3.90;;;;;;;25.25;37.74;98233.56;4502468;31;20139;-80
2022/07/25 01:36:08;;;;;;;7.62;3.70;;;;;;;24.89;38.29;98238.84;4502764;31;20099;-80
2022/07/25 01:38:35;;;;;;;9.65;3.70;;;;;;;24.46;39.21;98231.66;4502866;31;20084;-80
2022/07/25 01:41:02;;;;;;;7.80;3.67;;;;;;;24.58;39.00;98225.19;4502507;31;20144;-80
2022/07/25 01:43:29;;;;;;;7.68;3.50;;;;;;;24.01;40.23;98228.94;4502598;31;20131;-80
2022/07/25 01:45:56;;;;;;;9.20;4.30;;;;;;;24.42;39.77;98223.19;4502198;31;20109;-80
2022/07/25 01:48:23;;;;;;;8.38;3.78;;;;;;;23.75;40.77;98228.75;4502674;31;20080;-80
2022/07/25 01:50:50;;;;;;;8.70;4.10;;;;;;;23.73;40.95;98226.28;4502784;31;20100;-80
2022/07/25 01:53:17;;;;;;;10.07;3.95;;;;;;;24.67;39.00;98226.06;4502378;31;20146;-80
2022/07/25 01:55:45;;;;;;;8.27;3.70;;;;;;;24.23;40.19;98218.81;4502409;31;20167;-80
2022/07/25 01:58:12;;;;;;;10.90;3.87;;;;;;;23.83;41.68;98219.16;4502523;31;20088;-80
2022/07/25 02:00:40;;;;;;;9.23;4.30;;;;;;;21.71;45.25;98211.09;4501041;31;20101;-80
2022/07/25 02:05:52;;;;;;;9.13;4.10;;;;;;;20.23;51.63;98204.00;4502335;31;20446;-80
2022/07/25 02:08:19;;;;;;;8.88;3.67;;;;;;;20.59;51.47;98211.66;4502112;31;20449;-80
2022/07/25 02:10:46;;;;;;;8.20;3.97;;;;;;;21.56;47.77;98214.06;4502344;31;20171;-80
2022/07/25 02:13:14;;;;;;;10.00;4.22;;;;;;;22.22;45.96;98214.50;4502227;31;20104;-80
2022/07/25 02:15:41;;;;;;;10.40;3.92;;;;;;;23.57;42.49;98226.00;4500654;31;20162;-80
2022/07/25 02:18:08;;;;;;;10.75;4.50;;;;;;;24.00;40.91;98217.56;4502274;31;20123;-80
2022/07/25 02:20:35;;;;;;;9.52;4.20;;;;;;;23.58;41.17;98225.87;4502401;31;20100;-80
2022/07/25 02:23:03;;;;;;;10.98;4.40;;;;;;;23.08;42.17;98225.28;4504045;31;20486;-80
2022/07/25 02:25:31;;;;;;;9.68;4.50;;;;;;;22.74;43.12;98225.63;4504126;31;20343;-80
2022/07/25 02:27:58;;;;;;;9.63;4.03;;;;;;;22.41;43.96;98221.59;4503980;31;20080;-80
2022/07/25 02:30:25;;;;;;;8.02;4.05;;;;;;;22.43;44.14;98224.91;4504376;31;20535;-80
2022/07/25 02:32:52;;;;;;;9.77;4.22;;;;;;;22.84;43.45;98225.66;4504112;31;20119;-80
2022/07/25 02:35:19;;;;;;;9.35;4.12;;;;;;;22.95;43.36;98225.53;4503588;31;20122;-80
2022/07/25 02:37:46;;;;;;;9.20;4.20;;;;;;;22.84;43.74;98230.94;4503162;31;20475;-80
2022/07/25 02:40:13;;;;;;;8.40;3.95;;;;;;;23.28;42.62;98232.16;4504261;31;20100;-80
2022/07/25 02:42:40;;;;;;;10.00;4.30;;;;;;;23.44;41.79;98234.22;4503765;31;20502;-80
2022/07/25 02:45:08;;;;;;;9.30;4.32;;;;;;;22.98;43.33;98235.81;4503998;31;20127;-80
2022/07/25 02:47:35;;;;;;;9.68;4.60;;;;;;;22.89;44.00;98223.47;4504203;31;20155;-80
2022/07/25 02:50:03;;;;;;;9.00;4.32;;;;;;;23.51;42.32;98227.41;4503811;31;20088;-80
2022/07/25 02:52:30;;;;;;;9.30;3.95;;;;;;;24.63;39.77;98227.34;4504196;31;20112;-80
2022/07/25 02:54:57;;;;;;;8.80;4.28;;;;;;;24.80;39.88;98235.28;4503831;31;20092;-80
2022/07/25 02:57:24;;;;;;;9.68;3.97;;;;;;;23.92;41.35;98231.44;4503757;31;20551;-80
2022/07/25 02:59:51;;;;;;;10.07;4.30;;;;;;;23.31;42.94;98241.59;4503997;31;20569;-80
2022/07/25 03:02:18;;;;;;;8.80;4.28;;;;;;;23.41;42.86;98244.22;4503999;31;20112;-80
2022/07/25 03:04:45;;;;;;;17.37;4.45;;;;;;;23.95;41.89;98243.53;4503481;31;20122;-80
2022/07/25 03:07:12;;;;;;;10.90;4.28;;;;;;;24.34;40.85;98249.47;4504018;31;20072;-80
2022/07/25 03:09:39;;;;;;;9.25;4.55;;;;;;;23.75;42.22;98245.41;4503952;31;20165;-80
2022/07/25 03:12:06;;;;;;;8.55;4.07;;;;;;;24.55;40.83;98238.66;4503552;31;20140;-80
2022/07/25 03:14:33;;;;;;;8.65;4.12;;;;;;;24.09;41.64;98243.03;4503832;31;20115;-80
2022/07/25 03:17:00;;;;;;;8.82;4.10;;;;;;;24.32;41.32;98240.03;4504011;31;20144;-80
2022/07/25 03:19:27;;;;;;;8.85;4.12;;;;;;;24.38;41.36;98242.09;4504033;31;20088;-80
2022/07/25 03:21:54;;;;;;;8.68;4.10;;;;;;;25.30;39.04;98240.00;4503902;31;20130;-80
2022/07/25 03:24:21;;;;;;;8.63;3.90;;;;;;;25.05;39.82;98244.28;4503350;31;20174;-80
2022/07/25 03:26:48;;;;;;;8.55;3.90;;;;;;;24.43;40.79;98247.75;4503955;31;20167;-80
2022/07/25 03:29:15;;;;;;;9.35;4.43;;;;;;;24.46;40.24;98240.37;4503877;31;20130;-80
2022/07/25 03:31:43;;;;;;;8.65;4.12;;;;;;;24.05;40.86;98241.69;4503197;31;20461;-80
2022/07/25 03:34:10;;;;;;;8.52;3.83;;;;;;;23.51;42.22;98242.38;4502900;31;20750;-80
2022/07/25 03:36:37;;;;;;;10.63;4.20;;;;;;;23.78;42.26;98252.19;4503852;31;20498;-80
2022/07/25 03:39:04;;;;;;;10.25;4.15;;;;;;;23.73;42.65;98254.44;4503444;31;20111;-80
2022/07/25 03:41:31;;;;;;;9.73;4.20;;;;;;;24.51;41.34;98247.84;4503876;31;20152;-80
2022/07/25 03:43:58;;;;;;;9.45;4.47;;;;;;;24.76;41.39;98254.19;4503621;31;20170;-80
2022/07/25 03:46:25;;;;;;;8.13;3.97;;;;;;;24.43;42.41;98251.22;4503444;31;20175;-80
2022/07/25 03:48:54;;;;;;;11.55;4.30;;;;;;;25.13;40.50;98254.09;4503582;31;20152;-80
2022/07/25 03:51:21;;;;;;;9.48;4.20;;;;;;;25.08;40.09;98251.06;4503777;31;20100;-80
2022/07/25 03:54:07;;;;;;;10.48;4.60;;;;;;;25.21;40.55;98246.25;4503298;31;20091;-80
2022/07/25 03:56:38;;;;;;;8.30;3.90;;;;;;;24.60;42.25;98246.97;4503611;31;20111;-80
2022/07/25 03:59:11;;;;;;;11.25;5.32;;;;;;;24.64;41.93;98247.47;4503440;31;20100;-80
2022/07/25 04:01:38;;;;;;;11.10;5.37;;;;;;;24.00;42.77;98251.81;4503657;31;20109;-80
2022/07/25 04:04:05;;;;;;;8.30;3.97;;;;;;;25.41;40.65;98259.25;4502368;31;20110;-80
2022/07/25 04:06:33;;;;;;;9.15;4.40;;;;;;;26.41;38.40;98259.53;4503189;31;20415;-80
2022/07/25 04:09:00;;;;;;;8.25;4.10;;;;;;;26.88;37.27;98258.97;4503599;31;20515;-80
2022/07/25 04:11:29;;;;;;;8.80;4.10;;;;;;;27.79;35.54;98258.84;4503663;31;20096;-80
2022/07/25 04:13:57;;;;;;;10.57;5.60;;;;;;;27.96;35.74;98257.78;4501927;31;20176;-80
2022/07/25 04:16:24;;;;;;;10.75;4.90;;;;;;;28.46;34.95;98253.16;4503360;31;20079;-80
2022/07/25 04:18:54;;;;;;;9.55;4.37;;;;;;;29.15;34.02;98247.94;4502398;31;20104;-80
2022/07/25 04:21:23;;;;;;;8.93;4.57;;;;;;;29.79;32.93;98248.34;4503198;31;20152;-80
2022/07/25 04:23:50;;;;;;;9.57;4.05;;;;;;;30.43;31.58;98248.63;4503334;31;20100;-80
2022/07/25 04:26:17;;;;;;;10.73;4.20;;;;;;;31.14;30.16;98254.91;4503434;31;20148;-80
2022/07/25 04:28:44;;;;;;;16.27;5.68;;;;;;;31.58;29.37;98251.19;4503160;31;20148;-80
2022/07/25 04:31:11;;;;;;;13.38;4.62;;;;;;;31.51;29.90;98253.00;4503302;31;20104;-80
2022/07/25 04:33:39;;;;;;;13.02;4.50;;;;;;;31.69;29.85;98248.00;4503449;31;20088;-80
2022/07/25 04:36:06;;;;;;;13.65;4.50;;;;;;;32.00;29.21;98246.75;4501785;31;20102;-80
2022/07/25 04:38:33;;;;;;;12.37;4.43;;;;;;;32.70;28.66;98245.66;4503291;31;20100;-80
2022/07/25 04:41:00;;;;;;;12.13;4.85;;;;;;;33.40;28.53;98243.53;4503406;31;20108;-80
2022/07/25 04:43:27;;;;;;;8.77;4.35;;;;;;;33.71;27.78;98246.38;4502390;31;20151;-80
2022/07/25 04:45:54;;;;;;;9.68;4.80;;;;;;;33.56;27.80;98245.75;4503266;31;20114;-80
2022/07/25 04:48:21;;;;;;;9.07;4.37;;;;;;;34.58;26.50;98247.78;4502923;31;20525;-80
2022/07/25 04:50:49;;;;;;;10.10;4.90;;;;;;;35.49;25.31;98254.63;4503349;31;20096;-80
2022/07/25 04:53:16;;;;;;;10.20;4.45;;;;;;;35.89;24.74;98250.53;4503168;31;20092;-80
2022/07/25 04:55:43;;;;;;;9.75;4.80;;;;;;;36.10;24.04;98248.47;4502861;31;20589;-80
2022/07/25 04:58:09;;;;;;;9.65;4.18;;;;;;;35.99;22.95;98249.22;4503139;31;20108;-81
2022/07/25 05:00:36;;;;;;;11.05;4.90;;;;;;;36.01;23.01;98242.56;4503280;31;20163;-81
2022/07/25 05:03:04;;;;;;;9.35;5.00;;;;;;;36.58;23.41;98245.00;4502727;31;20088;-81
2022/07/25 05:05:30;;;;;;;12.57;4.80;;;;;;;37.53;23.37;98251.22;4503123;31;20084;-80
2022/07/25 05:07:58;;;;;;;10.35;4.97;;;;;;;38.05;22.39;98251.34;4501915;31;20156;-80
2022/07/25 05:10:27;;;;;;;10.43;4.75;;;;;;;37.74;22.43;98244.44;4502892;31;20426;-80
2022/07/25 05:12:54;;;;;;;9.68;4.85;;;;;;;36.43;24.37;98251.59;4503198;31;20146;-80
2022/07/25 05:15:21;;;;;;;9.45;4.70;;;;;;;37.01;23.35;98245.66;4502919;31;20547;-80
2022/07/25 05:17:48;;;;;;;9.20;4.32;;;;;;;37.83;22.47;98253.81;4502832;31;20145;-80
2022/07/25 05:20:15;;;;;;;9.48;4.65;;;;;;;38.64;21.43;98254.72;4503086;31;20164;-80
2022/07/25 05:22:42;;;;;;;10.38;4.62;;;;;;;39.12;20.69;98256.16;4503023;31;20435;-80
2022/07/25 05:25:10;;;;;;;10.43;4.70;;;;;;;38.65;20.72;98259.03;4502478;31;20142;-80
2022/07/25 05:27:38;;;;;;;11.30;4.80;;;;;;;38.53;20.42;98252.88;4502986;31;20149;-80
2022/07/25 05:30:07;;;;;;;8.57;5.10;;;;;;;38.46;20.58;98252.19;4501932;31;20116;-80
2022/07/25 05:32:34;;;;;;;16.30;5.25;;;;;;;38.75;20.30;98250.34;4501314;31;20088;-80
2022/07/25 05:35:01;;;;;;;8.40;4.45;;;;;;;39.28;19.71;98257.22;4502745;31;20126;-80
2022/07/25 05:37:28;;;;;;;9.90;4.43;;;;;;;39.53;19.36;98248.69;4502530;31;20160;-80
2022/07/25 05:39:55;;;;;;;8.82;4.60;;;;;;;40.02;19.26;98249.75;4502860;31;20144;-80
2022/07/25 05:42:22;;;;;;;8.55;4.25;;;;;;;40.51;18.59;98259.78;4502853;31;20135;-80
2022/07/25 05:44:49;;;;;;;9.85;4.35;;;;;;;39.94;19.15;98257.41;4501035;31;20083;-80
2022/07/25 05:47:16;;;;;;;9.35;4.12;;;;;;;40.48;18.75;98253.00;4502757;31;20114;-80
2022/07/25 05:49:43;;;;;;;8.77;4.53;;;;;;;38.66;20.86;98243.69;4502698;31;20167;-80
2022/07/25 05:52:10;;;;;;;9.30;4.20;;;;;;;37.96;21.31;98249.25;4502088;31;20108;-80
2022/07/25 05:54:39;;;;;;;9.70;4.10;;;;;;;36.93;21.64;98248.66;4502189;31;20080;-79
2022/07/25 05:57:06;;;;;;;8.40;4.37;;;;;;;36.87;21.47;98243.38;4503921;31;20135;-80
2022/07/25 05:59:33;;;;;;;9.35;4.47;;;;;;;34.93;23.76;98245.53;4502968;31;20153;-80
2022/07/25 06:02:00;;;;;;;9.00;4.45;;;;;;;34.67;23.82;98240.31;4504417;31;20175;-81
2022/07/25 06:04:28;;;;;;;10.88;4.37;;;;;;;34.29;24.92;98245.63;4504241;31;20088;-80
2022/07/25 06:06:55;;;;;;;10.77;4.47;;;;;;;34.29;24.47;98238.41;4504054;31;20108;-80
2022/07/25 06:09:22;;;;;;;9.73;4.45;;;;;;;33.29;26.58;98231.56;4504464;31;20167;-80
2022/07/25 06:11:50;;;;;;;8.38;4.37;;;;;;;33.12;26.14;98236.50;4503273;31;20245;-80
2022/07/25 06:14:26;;;;;;;7.87;3.87;;;;;;;33.62;25.58;98229.72;4502823;31;20107;-80
2022/07/25 06:16:54;;;;;;;7.80;4.28;;;;;;;32.14;26.85;98232.47;4504313;31;20108;-80
2022/07/25 06:19:21;;;;;;;9.10;4.62;;;;;;;31.15;28.42;98229.06;4504996;31;20139;-79
2022/07/25 06:21:48;;;;;;;9.48;4.53;;;;;;;32.01;27.33;98232.41;4504074;31;20098;-79
2022/07/25 06:24:15;;;;;;;8.45;4.40;;;;;;;31.85;27.70;98236.22;4504011;31;20574;-80
2022/07/25 06:26:42;;;;;;;8.90;4.53;;;;;;;32.60;26.32;98226.50;4504036;31;20122;-79
2022/07/25 06:29:09;;;;;;;7.55;4.10;;;;;;;32.37;26.78;98219.66;4504513;31;20151;-78
2022/07/25 06:31:36;;;;;;;9.38;3.83;;;;;;;31.95;28.22;98231.34;4489899;31;20092;-78
2022/07/25 06:34:04;;;;;;;8.65;4.20;;;;;;;31.76;27.11;98224.87;4502787;31;20087;-77
2022/07/25 06:36:31;;;;;;;8.13;4.68;;;;;;;31.51;28.34;98224.50;4504160;31;20423;-77
2022/07/25 06:38:59;;;;;;;10.15;4.72;;;;;;;30.73;29.52;98220.06;4504242;31;20092;-76
2022/07/25 06:41:26;;;;;;;10.57;4.35;;;;;;;30.36;29.93;98218.41;4503811;31;20084;-76
2022/07/25 06:43:53;;;;;;;7.75;4.18;;;;;;;30.81;29.32;98223.44;4503998;31;20123;-76
2022/07/25 06:46:20;;;;;;;7.80;3.95;;;;;;;29.92;29.94;98212.13;4504070;31;20118;-76
2022/07/25 06:48:47;;;;;;;8.60;4.50;;;;;;;30.37;29.86;98207.59;4503822;31;20096;-79
2022/07/25 06:51:14;;;;;;;10.18;4.30;;;;;;;30.55;29.34;98207.19;4504167;31;20088;-79
2022/07/25 06:53:41;;;;;;;9.05;4.60;;;;;;;29.54;31.15;98208.69;4504070;31;20114;-79
2022/07/25 06:56:08;;;;;;;16.10;4.07;;;;;;;30.70;29.31;98209.81;4503680;31;20534;-79
2022/07/25 06:58:39;;;;;;;9.05;4.03;;;;;;;31.14;28.50;98206.94;4504294;31;20512;-79
2022/07/25 07:01:06;;;;;;;8.38;4.18;;;;;;;31.06;28.79;98209.75;4504269;31;20108;-79
2022/07/25 07:03:36;;;;;;;8.63;4.00;;;;;;;30.78;29.09;98205.19;4503571;31;20092;-79
2022/07/25 07:06:08;;;;;;;8.45;4.50;;;;;;;31.17;29.16;98209.22;4503922;31;20160;-79
2022/07/25 07:08:35;;;;;;;8.10;4.10;;;;;;;32.01;27.74;98198.56;4503618;31;20170;-79
2022/07/25 07:11:03;;;;;;;8.70;4.10;;;;;;;31.40;28.37;98208.19;4504030;31;20139;-79
2022/07/25 07:13:30;;;;;;;7.57;4.03;;;;;;;31.02;28.90;98197.81;4503960;31;20080;-79
2022/07/25 07:15:57;;;;;;;9.07;3.72;;;;;;;32.07;27.81;98203.06;4503668;31;20153;-79
2022/07/25 07:18:24;;;;;;;7.87;3.78;;;;;;;31.79;27.79;98210.31;4504024;31;20096;-79
2022/07/25 07:20:52;;;;;;;8.30;4.03;;;;;;;31.28;28.47;98191.91;4503934;31;20226;-79
2022/07/25 07:23:19;;;;;;;7.97;4.20;;;;;;;30.68;29.16;98195.84;4503372;31;20098;-79
2022/07/25 07:25:46;;;;;;;7.53;3.90;;;;;;;30.84;29.41;98197.44;4503803;31;20093;-79
2022/07/25 07:28:14;;;;;;;8.18;4.20;;;;;;;31.46;27.70;98199.41;4503738;31;20104;-79
2022/07/25 07:30:41;;;;;;;8.45;3.78;;;;;;;31.32;28.81;98195.84;4503155;31;20526;-79
2022/07/25 07:33:28;;;;;;;8.30;4.05;;;;;;;31.99;27.56;98189.06;4503502;31;20132;-79
2022/07/25 07:35:56;;;;;;;8.57;4.25;;;;;;;31.77;27.43;98199.03;4503632;31;20100;-80
2022/07/25 07:38:24;;;;;;;8.38;4.12;;;;;;;32.02;27.06;98196.72;4503417;31;20155;-79
2022/07/25 07:40:52;;;;;;;7.53;3.97;;;;;;;32.79;26.85;98189.16;4503638;31;20084;-80
2022/07/25 07:43:19;;;;;;;7.25;3.85;;;;;;;32.99;26.74;98188.38;4503447;31;20533;-80
2022/07/25 07:45:48;;;;;;;7.95;3.70;;;;;;;32.12;28.07;98192.66;4503289;31;20791;-80
2022/07/25 07:48:15;;;;;;;7.35;3.70;;;;;;;32.12;26.63;98189.97;4503718;31;20177;-79
2022/07/25 07:50:42;;;;;;;10.40;3.78;;;;;;;32.86;26.30;98191.00;4503378;31;20076;-79
2022/07/25 07:53:09;;;;;;;8.23;3.67;;;;;;;32.20;27.24;98189.78;4503728;31;20489;-79
2022/07/25 07:55:47;;;;;;;7.50;3.95;;;;;;;31.93;26.94;98193.38;4503378;31;20084;-80
2022/07/25 07:58:17;;;;;;;7.20;3.72;;;;;;;32.02;27.75;98188.69;4503176;31;20136;-79
2022/07/25 08:00:48;;;;;;;6.75;3.47;;;;;;;32.28;26.79;98185.28;4503539;31;20103;-80
2022/07/25 08:03:19;;;;;;;7.03;3.78;;;;;;;32.46;27.30;98182.94;4503385;31;20151;-80
2022/07/25 08:05:47;;;;;;;10.13;4.10;;;;;;;31.87;27.22;98186.97;4502052;31;20155;-79
2022/07/25 08:08:15;;;;;;;8.70;3.92;;;;;;;31.76;27.64;98186.72;4503689;31;20109;-79
2022/07/25 08:10:45;;;;;;;8.57;4.53;;;;;;;31.63;27.89;98185.59;4503550;31;20155;-80
2022/07/25 08:13:20;;;;;;;10.45;4.50;;;;;;;32.53;27.06;98176.56;4501813;31;20147;-80
2022/07/25 08:15:50;;;;;;;8.82;3.83;;;;;;;33.06;26.19;98176.62;4503439;31;20147;-80
2022/07/25 08:18:18;;;;;;;8.25;4.00;;;;;;;33.51;25.58;98176.03;4503102;31;20560;-80
2022/07/25 08:20:46;;;;;;;7.50;3.75;;;;;;;33.70;25.39;98180.50;4502891;31;20100;-80
2022/07/25 08:23:13;;;;;;;7.28;3.85;;;;;;;33.69;24.34;98170.81;4502091;31;20084;-80
2022/07/25 08:25:41;;;;;;;7.37;3.75;;;;;;;32.84;26.00;98169.84;4503503;31;20131;-81
2022/07/25 08:28:08;;;;;;;7.62;3.60;;;;;;;32.08;26.71;98158.53;4503333;31;20129;-81
2022/07/25 08:30:36;;;;;;;7.68;4.00;;;;;;;32.94;25.79;98164.94;4503430;31;20167;-80
2022/07/25 08:33:05;;;;;;;6.43;3.15;;;;;;;32.99;26.22;98162.47;4503110;31;20084;-80
2022/07/25 08:35:33;;;;;;;7.40;3.97;;;;;;;33.52;24.72;98162.44;4503102;31;20163;-80
2022/07/25 08:38:01;;;;;;;7.90;4.30;;;;;;;33.18;26.47;98168.00;4503549;31;20374;-80
2022/07/25 08:40:30;;;;;;;7.28;3.37;;;;;;;33.25;25.45;98158.13;4503029;31;20106;-80
2022/07/25 08:42:57;;;;;;;9.13;4.35;;;;;;;33.42;25.18;98167.41;4503332;31;20099;-80
2022/07/25 08:45:26;;;;;;;7.03;3.92;;;;;;;33.33;26.04;98157.91;4501698;31;20108;-81
2022/07/25 08:47:54;;;;;;;10.20;4.30;;;;;;;34.16;24.11;98169.66;4502916;31;20163;-80
2022/07/25 08:50:27;;;;;;;7.55;4.25;;;;;;;35.29;22.87;98169.75;4503083;31;20103;-79
2022/07/25 08:52:54;;;;;;;7.18;3.80;;;;;;;34.13;23.70;98161.22;4503260;31;20489;-80
2022/07/25 08:55:43;;;;;;;7.85;4.10;;;;;;;33.67;24.57;98157.66;4502601;31;20148;-82
2022/07/25 08:58:13;;;;;;;7.70;4.28;;;;;;;34.20;24.89;98162.03;4503393;31;20111;-81
2022/07/25 09:00:40;;;;;;;12.70;4.40;;;;;;;34.51;24.42;98153.22;4503249;31;20112;-80
2022/07/25 09:03:07;;;;;;;7.93;3.90;;;;;;;34.27;25.25;98151.28;4502854;31;20561;-81
2022/07/25 09:05:35;;;;;;;7.72;4.00;;;;;;;34.17;24.82;98157.09;4502897;31;20084;-80
2022/07/25 09:08:13;;;;;;;12.05;4.45;;;;;;;35.09;23.59;98161.06;4502922;31;20226;-80
2022/07/25 09:10:49;;;;;;;7.32;3.80;;;;;;;35.49;22.67;98161.53;4502019;31;20167;-81
2022/07/25 09:13:17;;;;;;;8.40;4.10;;;;;;;34.18;23.98;98154.19;4503265;31;20105;-80
2022/07/25 09:15:49;;;;;;;7.00;3.95;;;;;;;34.66;23.38;98152.91;4502736;31;20122;-80
2022/07/25 09:18:18;;;;;;;8.15;4.30;;;;;;;35.18;22.75;98151.69;4503107;31;20161;-80
2022/07/25 09:20:57;;;;;;;7.53;4.18;;;;;;;34.26;24.12;98150.47;4501884;31;20101;-80
2022/07/25 09:23:37;;;;;;;7.93;4.07;;;;;;;34.23;24.81;98145.50;4502517;31;20102;-80
2022/07/25 09:26:05;;;;;;;7.25;4.40;;;;;;;34.64;24.05;98153.12;4502903;31;20172;-80
2022/07/25 09:28:39;;;;;;;9.85;4.05;;;;;;;35.11;23.72;98147.44;4502780;31;20109;-80
2022/07/25 09:31:06;;;;;;;7.53;3.80;;;;;;;35.38;23.42;98156.91;4502215;31;20081;-80
2022/07/25 09:33:33;;;;;;;8.27;3.97;;;;;;;35.81;22.55;98142.59;4502850;31;20084;-81
2022/07/25 09:36:11;;;;;;;7.75;4.22;;;;;;;36.05;22.06;98133.69;4502373;31;20152;-81
2022/07/25 09:38:38;;;;;;;9.15;3.90;;;;;;;35.99;22.34;98141.81;4502818;31;20088;-82
2022/07/25 09:41:06;;;;;;;6.97;3.62;;;;;;;35.75;22.02;98138.16;4502836;31;20171;-81
2022/07/25 09:43:51;;;;;;;7.78;4.20;;;;;;;35.33;22.53;98136.09;4502272;31;20087;-81
2022/07/25 09:46:31;;;;;;;7.45;3.90;;;;;;;35.15;23.37;98136.06;4502700;31;20164;-81
2022/07/25 09:48:59;;;;;;;10.43;4.05;;;;;;;35.08;22.78;98124.56;4502814;31;20133;-81
2022/07/25 09:51:27;;;;;;;9.68;4.12;;;;;;;34.19;23.94;98117.53;4502402;31;20106;-80
2022/07/25 09:53:54;;;;;;;7.18;4.20;;;;;;;35.02;23.60;98114.72;4502308;31;20072;-80
2022/07/25 09:56:21;;;;;;;8.45;4.15;;;;;;;35.50;22.42;98116.75;4502497;31;20096;-80
2022/07/25 09:58:48;;;;;;;9.57;4.07;;;;;;;35.12;23.65;98114.22;4502202;31;20563;-80
2022/07/25 10:01:26;;;;;;;8.45;3.95;;;;;;;35.70;22.45;98103.91;4502462;31;20092;-80
2022/07/25 10:04:12;;;;;;;7.12;4.18;;;;;;;36.01;21.52;98102.13;4500910;31;20547;-80
2022/07/25 10:07:15;;;;;;;10.32;3.92;;;;;;;36.69;20.91;98110.66;4501321;31;20459;-80
2022/07/25 10:09:44;;;;;;;9.40;4.20;;;;;;;35.42;22.29;98101.78;4466868;31;20145;-80
2022/07/25 10:12:13;;;;;;;7.07;4.10;;;;;;;36.54;21.35;98104.88;4502047;31;20103;-80
2022/07/25 10:14:41;;;;;;;7.40;4.30;;;;;;;36.74;21.42;98101.88;4500811;31;20501;-80
2022/07/25 10:17:08;;;;;;;9.73;4.00;;;;;;;37.12;20.97;98101.47;4502232;31;20561;-81
2022/07/25 10:19:49;;;;;;;9.25;4.18;;;;;;;37.54;20.58;98104.84;4500639;31;20096;-81
2022/07/25 10:22:38;;;;;;;7.85;4.15;;;;;;;36.15;22.13;98092.81;4502292;31;20131;-81
2022/07/25 10:25:22;;;;;;;7.57;4.10;;;;;;;36.58;21.34;98103.41;4501503;31;20096;-80
2022/07/25 10:27:52;;;;;;;7.72;4.00;;;;;;;36.72;21.16;98099.44;4502133;31;20115;-80
2022/07/25 10:30:39;;;;;;;9.15;3.80;;;;;;;36.08;21.92;98101.00;4502123;31;20446;-80
2022/07/25 10:33:12;;;;;;;8.15;3.87;;;;;;;36.15;21.70;98096.31;4501764;31;20151;-80
2022/07/25 10:35:40;;;;;;;7.55;3.90;;;;;;;35.93;21.87;98087.94;4501852;31;20080;-80
2022/07/25 10:38:07;;;;;;;7.15;3.85;;;;;;;37.14;20.46;98085.09;4502014;31;20096;-80
2022/07/25 10:40:40;;;;;;;6.55;4.00;;;;;;;36.15;21.69;98085.59;4501696;31;20123;-80
2022/07/25 10:43:10;;;;;;;7.35;3.87;;;;;;;36.62;20.61;98088.44;4503571;31;20083;-80
2022/07/25 10:45:40;;;;;;;6.87;3.78;;;;;;;36.85;20.48;98084.16;4503911;31;20470;-80
2022/07/25 10:48:09;;;;;;;7.07;4.00;;;;;;;35.73;22.26;98082.00;4503754;31;20131;-80
2022/07/25 10:51:03;;;;;;;10.27;4.45;;;;;;;35.94;21.40;98072.66;4504160;31;20420;-80
2022/07/25 10:53:35;;;;;;;7.30;3.70;;;;;;;36.70;20.41;98071.16;4503732;31;20136;-80
2022/07/25 10:56:05;;;;;;;8.32;3.80;;;;;;;37.06;20.36;98064.75;4503994;31;20136;-81
2022/07/25 10:58:42;;;;;;;6.93;4.10;;;;;;;35.85;21.49;98060.59;4504148;31;20122;-81
2022/07/25 11:01:12;;;;;;;7.68;4.03;;;;;;;35.59;21.64;98051.81;4503714;31;20088;-80
2022/07/25 11:03:43;;;;;;;9.60;3.90;;;;;;;36.11;21.32;98057.56;4504076;31;20126;-80
2022/07/25 11:06:12;;;;;;;7.32;3.90;;;;;;;36.94;20.28;98050.50;4503887;31;20124;-80
2022/07/25 11:08:40;;;;;;;8.02;3.97;;;;;;;36.52;20.91;98052.44;4503672;31;20131;-80
2022/07/25 11:11:08;;;;;;;8.13;4.15;;;;;;;35.90;21.75;98047.31;4503974;31;20163;-80
2022/07/25 11:13:41;;;;;;;9.18;4.03;;;;;;;36.59;21.03;98045.91;4503921;31;20099;-80
2022/07/25 11:16:09;;;;;;;7.43;4.00;;;;;;;36.08;21.33;98033.84;4503528;31;20072;-80
2022/07/25 11:18:38;;;;;;;8.48;3.92;;;;;;;37.47;19.96;98030.69;4503730;31;20126;-80
2022/07/25 11:21:07;;;;;;;7.55;4.18;;;;;;;36.66;20.92;98025.09;4503932;31;20547;-80
2022/07/25 11:23:35;;;;;;;8.20;3.80;;;;;;;36.45;21.19;98022.97;4503635;31;20155;-80
2022/07/25 11:26:07;;;;;;;7.22;3.80;;;;;;;35.79;22.31;98016.66;4503717;31;20072;-80
2022/07/25 11:28:44;;;;;;;8.55;4.40;;;;;;;36.42;21.19;98015.38;4503504;31;20573;-80
2022/07/25 11:31:13;;;;;;;7.47;3.78;;;;;;;36.84;20.90;98015.31;4503656;31;20119;-80
2022/07/25 11:33:42;;;;;;;7.22;4.00;;;;;;;36.20;21.23;98009.72;4503842;31;20099;-80
2022/07/25 11:36:10;;;;;;;9.00;4.45;;;;;;;35.84;22.36;98011.47;4503374;31;20465;-80
2022/07/25 11:38:38;;;;;;;7.55;4.32;;;;;;;36.05;21.61;97998.56;4503734;31;20108;-79
2022/07/25 11:41:06;;;;;;;9.18;4.93;;;;;;;36.80;20.68;98004.19;4502634;31;20167;-80